M I D A S
Marine Information and Data Acquisition System
Tripno 1651 of the Zeeleeuw from 2009-03-02 07:39:02 to 2009-03-02 18:03:57
Back to CruiseResearch ActivitiesStationsMapUnderway DataData graphs

EquipmentUnitsComment
TimeDGPSUTC
LatitudeDGPSDM.mWGS84
LongitudeDGPSDM.mWGS84
HeadingGyrodeg 
SOGDGPSknotsSpeed over ground
COGDGPSdegCourse over ground
DepthEcho soundermeters200 kHz
Missing or incorrect values are displayed as -999
Navigation data collected by the RV Zeeleeuw from 2009-03-02 07:38:28 to 2009-03-02 18:13:10
                                                                                    Next 1000 lines
Time Latitude Longitude Heading SOG COG Depth
2009-03-02 07:38:38 51°13.661 2°55.956 111.4 0.8 289 5.8
2009-03-02 07:38:43 51°13.662 2°55.954 111.2 1.1 291 5.9
2009-03-02 07:38:48 51°13.662 2°55.951 111.1 1.3 291 6
2009-03-02 07:38:53 51°13.663 2°55.948 111.1 1.6 293 5.9
2009-03-02 07:38:58 51°13.664 2°55.945 111.2 1.8 293 6.1
2009-03-02 07:39:03 51°13.665 2°55.941 111.5 2.1 293 -999
2009-03-02 07:39:08 51°13.666 2°55.936 111.6 2.2 294 -999
2009-03-02 07:39:13 51°13.668 2°55.931 111.6 2.4 293 -999
2009-03-02 07:39:18 51°13.669 2°55.926 111.2 2.6 293 -999
2009-03-02 07:39:23 51°13.671 2°55.921 110.8 2.7 292 -999
2009-03-02 07:39:28 51°13.672 2°55.915 110.1 2.8 291 -999
2009-03-02 07:39:33 51°13.674 2°55.909 109.4 2.9 290 -999
2009-03-02 07:39:38 51°13.675 2°55.903 108.6 3 288 -999
2009-03-02 07:39:43 51°13.676 2°55.896 108 3.1 288 -999
2009-03-02 07:39:48 51°13.677 2°55.889 107.4 3.2 287 -999
2009-03-02 07:39:53 51°13.679 2°55.882 107 3.3 286 -999
2009-03-02 07:39:58 51°13.68 2°55.875 106.8 3.4 287 -999
2009-03-02 07:40:03 51°13.682 2°55.868 106.7 3.4 286 -999
2009-03-02 07:40:08 51°13.683 2°55.861 106.6 3.5 285 -999
2009-03-02 07:40:13 51°13.684 2°55.853 106.2 3.6 286 -999
2009-03-02 07:40:18 51°13.686 2°55.846 106 3.6 286 -999
2009-03-02 07:40:23 51°13.687 2°55.838 105.7 3.5 285 -999
2009-03-02 07:40:28 51°13.689 2°55.831 105.6 3.4 284 -999
2009-03-02 07:40:33 51°13.69 2°55.824 105.6 3.4 286 -999
2009-03-02 07:40:38 51°13.691 2°55.817 105.4 3.2 284 -999
2009-03-02 07:40:43 51°13.692 2°55.81 105.4 3 285 8.9
2009-03-02 07:40:48 51°13.693 2°55.804 105.8 2.8 285 -999
2009-03-02 07:40:53 51°13.694 2°55.799 106.5 2.4 286 -999
2009-03-02 07:40:58 51°13.695 2°55.795 107.5 2 287 -999
2009-03-02 07:41:03 51°13.695 2°55.791 109 1.4 285 -999
2009-03-02 07:41:08 51°13.695 2°55.789 110.4 0.9 281 10.4
2009-03-02 07:41:13 51°13.695 2°55.788 112.2 0.5 290 -999
2009-03-02 07:41:18 51°13.695 2°55.787 115 0.6 272 10.5
2009-03-02 07:41:23 51°13.696 2°55.786 118.8 0.6 296 10.5
2009-03-02 07:41:28 51°13.696 2°55.784 121.5 0.7 284 10.6
2009-03-02 07:41:33 51°13.697 2°55.783 123.7 0.7 299 10.7
2009-03-02 07:41:38 51°13.697 2°55.781 125.3 0.9 290 10.7
2009-03-02 07:41:43 51°13.698 2°55.779 126.9 1 302 10.8
2009-03-02 07:41:48 51°13.698 2°55.777 128.8 1.1 297 4.8
2009-03-02 07:41:53 51°13.699 2°55.775 130.4 1.1 304 -999
2009-03-02 07:41:58 51°13.7 2°55.773 132.2 1.3 303 11
2009-03-02 07:42:03 51°13.701 2°55.77 134.1 1.4 309 -999
2009-03-02 07:42:08 51°13.703 2°55.767 135.8 1.5 309 4.9
2009-03-02 07:42:13 51°13.704 2°55.764 137.6 1.8 313 -999
2009-03-02 07:42:18 51°13.706 2°55.761 139.1 2.1 315 -999
2009-03-02 07:42:23 51°13.708 2°55.758 140.8 2.3 315 -999
2009-03-02 07:42:28 51°13.711 2°55.754 141.9 2.5 318 -999
2009-03-02 07:42:33 51°13.713 2°55.75 142.7 2.7 318 -999
2009-03-02 07:42:38 51°13.716 2°55.746 143.3 2.8 320 -999
2009-03-02 07:42:43 51°13.719 2°55.742 143.7 2.9 319 -999
2009-03-02 07:42:48 51°13.723 2°55.738 143.8 3 320 -999
2009-03-02 07:42:53 51°13.726 2°55.734 144 3.2 320 -999
2009-03-02 07:42:58 51°13.73 2°55.729 144.1 3.3 322 -999
2009-03-02 07:43:03 51°13.733 2°55.725 144.3 3.5 322 -999
2009-03-02 07:43:08 51°13.737 2°55.72 144.6 3.6 323 -999
2009-03-02 07:43:13 51°13.741 2°55.715 145.4 3.8 323 -999
2009-03-02 07:43:18 51°13.746 2°55.71 146.1 3.9 324 -999
2009-03-02 07:43:23 51°13.75 2°55.704 146.8 4 323 -999
2009-03-02 07:43:28 51°13.755 2°55.699 147.6 4.1 325 -999
2009-03-02 07:43:33 51°13.76 2°55.694 148.5 4.2 326 -999
2009-03-02 07:43:38 51°13.765 2°55.689 149.6 4.3 327 -999
2009-03-02 07:43:43 51°13.77 2°55.683 150.8 4.4 327 -999
2009-03-02 07:43:48 51°13.775 2°55.679 152 4.4 330 -999
2009-03-02 07:43:53 51°13.781 2°55.674 153.3 4.5 331 -999
2009-03-02 07:43:58 51°13.786 2°55.669 154.7 4.5 334 -999
2009-03-02 07:44:03 51°13.792 2°55.665 156.2 4.5 335 -999
2009-03-02 07:44:08 51°13.798 2°55.661 157.8 4.5 336 -999
2009-03-02 07:44:13 51°13.803 2°55.657 159 4.6 338 -999
2009-03-02 07:44:18 51°13.809 2°55.653 159.8 4.5 340 -999
2009-03-02 07:44:23 51°13.815 2°55.65 160.4 4.4 340 -999
2009-03-02 07:44:28 51°13.821 2°55.647 160.7 4.3 341 -999
2009-03-02 07:44:33 51°13.826 2°55.644 160.7 4.2 341 -999
2009-03-02 07:44:38 51°13.832 2°55.641 160.1 4.2 341 -999
2009-03-02 07:44:43 51°13.837 2°55.638 159.8 4.2 340 -999
2009-03-02 07:44:48 51°13.843 2°55.634 159.8 4.2 341 -999
2009-03-02 07:44:53 51°13.848 2°55.631 159.9 4 339 -999
2009-03-02 07:44:58 51°13.853 2°55.628 160 4 340 -999
2009-03-02 07:45:03 51°13.858 2°55.625 160.3 4 341 -999
2009-03-02 07:45:08 51°13.863 2°55.622 161.1 4 339 -999
2009-03-02 07:45:13 51°13.869 2°55.619 162.1 4.1 341 -999
2009-03-02 07:45:18 51°13.874 2°55.616 163.4 4.1 341 -999
2009-03-02 07:45:23 51°13.879 2°55.614 165.6 3.9 344 -999
2009-03-02 07:45:28 51°13.885 2°55.611 167.7 3.8 344 -999
2009-03-02 07:45:33 51°13.89 2°55.61 169.7 3.6 348 -999
2009-03-02 07:45:38 51°13.894 2°55.608 171.7 3.5 348 -999
2009-03-02 07:45:43 51°13.899 2°55.607 173.7 3.4 351 -999
2009-03-02 07:45:48 51°13.903 2°55.606 175.7 3.3 351 -999
2009-03-02 07:45:53 51°13.908 2°55.605 177.2 3.2 354 -999
2009-03-02 07:45:58 51°13.912 2°55.605 179.2 3.1 356 4.8
2009-03-02 07:46:03 51°13.917 2°55.604 181.6 3 358 -999
2009-03-02 07:46:08 51°13.92 2°55.604 183.2 2.9 -999 4.8
2009-03-02 07:46:13 51°13.925 2°55.605 185.2 2.9 3 -999
2009-03-02 07:46:18 51°13.929 2°55.605 187.3 2.8 4 -999
2009-03-02 07:46:23 51°13.932 2°55.606 188.8 2.7 5 4.7
2009-03-02 07:46:28 51°13.936 2°55.606 190.5 2.6 7 4.7
2009-03-02 07:46:32 51°13.938 2°55.607 191.7 2.5 9 4.8
2009-03-02 07:46:38 51°13.942 2°55.608 192.9 2.3 10 -999
2009-03-02 07:46:43 51°13.945 2°55.609 194.3 2.1 11 -999
2009-03-02 07:46:48 51°13.948 2°55.61 195.2 1.9 12 -999
2009-03-02 07:46:53 51°13.95 2°55.611 196.1 1.6 11 9.6
2009-03-02 07:46:58 51°13.952 2°55.611 197.5 1.2 9 9.6
2009-03-02 07:47:03 51°13.953 2°55.611 198.9 0.8 9 9.6
2009-03-02 07:47:08 51°13.954 2°55.611 200.7 0.5 359 9.6
2009-03-02 07:47:13 51°13.954 2°55.611 202.6 0.3 324 9.6
2009-03-02 07:47:18 51°13.954 2°55.61 205.5 0.3 259 9.6
2009-03-02 07:47:23 51°13.953 2°55.609 210.2 0.7 236 9.6
2009-03-02 07:47:28 51°13.952 2°55.607 213.8 0.9 234 9.6
2009-03-02 07:47:33 51°13.951 2°55.605 218.6 1.1 235 9.6
2009-03-02 07:47:38 51°13.95 2°55.603 224.7 1.4 239 9.6
2009-03-02 07:47:43 51°13.95 2°55.6 230.6 1.6 242 4.8
2009-03-02 07:47:48 51°13.949 2°55.597 234.3 1.5 245 9.6
2009-03-02 07:47:53 51°13.948 2°55.594 239 1.2 257 9.6
2009-03-02 07:47:58 51°13.948 2°55.592 242.3 0.8 251 9.6
2009-03-02 07:48:03 51°13.948 2°55.591 245.1 0.4 290 9.5
2009-03-02 07:48:08 51°13.948 2°55.592 248.3 0.1 5 9.6
2009-03-02 07:48:13 51°13.948 2°55.592 251.8 0.5 59 9.6
2009-03-02 07:48:18 51°13.949 2°55.594 254.7 0.9 70 9.6
2009-03-02 07:48:23 51°13.949 2°55.597 257.2 1.2 72 9.6
2009-03-02 07:48:28 51°13.95 2°55.599 259.3 1.2 72 9.6
2009-03-02 07:48:33 51°13.95 2°55.602 261.2 1.1 73 -999
2009-03-02 07:48:38 51°13.951 2°55.604 262.7 1 69 -999
2009-03-02 07:48:43 51°13.951 2°55.605 263.7 0.6 76 -999
2009-03-02 07:48:48 51°13.952 2°55.605 265 0.4 24 -999
2009-03-02 07:48:53 51°13.952 2°55.605 267.3 0.5 280 -999
2009-03-02 07:48:58 51°13.952 2°55.603 272.3 1.1 298 -999
2009-03-02 07:49:03 51°13.953 2°55.6 277.6 1.4 284 -999
2009-03-02 07:49:08 51°13.954 2°55.596 282.4 1.7 297 4.7
2009-03-02 07:49:13 51°13.955 2°55.593 288.4 2 296 4.8
2009-03-02 07:49:18 51°13.957 2°55.588 293.2 2.2 303 4.9
2009-03-02 07:49:23 51°13.959 2°55.584 299.1 2.4 305 4.8
2009-03-02 07:49:28 51°13.961 2°55.58 304.9 2.7 313 5
2009-03-02 07:49:33 51°13.964 2°55.575 310 3.1 317 9.6
2009-03-02 07:49:38 51°13.968 2°55.571 314.5 3.4 321 9.6
2009-03-02 07:49:43 51°13.972 2°55.566 319.4 3.7 324 9.6
2009-03-02 07:49:48 51°13.977 2°55.561 323.2 3.9 326 9.6
2009-03-02 07:49:53 51°13.982 2°55.556 326.1 4.3 327 9.6
2009-03-02 07:49:58 51°13.987 2°55.551 328 4.5 328 9.6
2009-03-02 07:50:03 51°13.992 2°55.545 328.5 4.7 328 9.6
2009-03-02 07:50:08 51°13.998 2°55.539 328.6 4.9 328 9.6
2009-03-02 07:50:13 51°14.004 2°55.533 328.8 5.1 328 9.6
2009-03-02 07:50:18 51°14.011 2°55.527 328.9 5.3 329 9.6
2009-03-02 07:50:23 51°14.018 2°55.521 329.2 5.5 329 9.6
2009-03-02 07:50:28 51°14.024 2°55.514 329.6 5.7 329 9.6
2009-03-02 07:50:33 51°14.031 2°55.508 329.6 5.9 330 9.6
2009-03-02 07:50:38 51°14.038 2°55.501 329.9 6 329 9.5
2009-03-02 07:50:43 51°14.046 2°55.494 330.3 6.2 330 9.5
2009-03-02 07:50:48 51°14.054 2°55.487 330.8 6.3 330 9.6
2009-03-02 07:50:52 51°14.06 2°55.482 330.8 6.5 330 9.6
2009-03-02 07:50:58 51°14.069 2°55.473 330.8 6.6 330 9.6
2009-03-02 07:51:03 51°14.077 2°55.466 331 6.7 331 9.6
2009-03-02 07:51:08 51°14.085 2°55.458 331.4 6.8 331 9.6
2009-03-02 07:51:13 51°14.094 2°55.451 331.6 6.9 331 9.6
2009-03-02 07:51:18 51°14.102 2°55.444 331.7 6.9 330 -999
2009-03-02 07:51:23 51°14.11 2°55.436 331.5 7 330 -999
2009-03-02 07:51:28 51°14.119 2°55.428 331.3 7.1 330 9.5
2009-03-02 07:51:33 51°14.127 2°55.42 331.2 7.1 330 9.6
2009-03-02 07:51:38 51°14.136 2°55.412 331.1 7.2 330 9.6
2009-03-02 07:51:43 51°14.145 2°55.404 330.7 7.4 329 9.5
2009-03-02 07:51:48 51°14.154 2°55.395 330.5 7.4 330 9.6
2009-03-02 07:51:53 51°14.163 2°55.387 330.4 7.6 329 9.6
2009-03-02 07:51:58 51°14.172 2°55.378 330.4 7.6 328 9.6
2009-03-02 07:52:03 51°14.181 2°55.368 329.8 7.7 327 9.6
2009-03-02 07:52:08 51°14.19 2°55.359 328.7 7.8 326 9.6
2009-03-02 07:52:13 51°14.198 2°55.349 327.4 7.8 324 9.6
2009-03-02 07:52:18 51°14.207 2°55.338 326 7.9 324 9.6
2009-03-02 07:52:23 51°14.216 2°55.328 325 7.9 321 9.6
2009-03-02 07:52:28 51°14.224 2°55.317 323.6 8 320 9.6
2009-03-02 07:52:33 51°14.233 2°55.305 322.2 8.1 320 9.6
2009-03-02 07:52:38 51°14.241 2°55.293 320.9 8.2 317 9.6
2009-03-02 07:52:43 51°14.25 2°55.281 319.4 8.4 317 10
2009-03-02 07:52:48 51°14.258 2°55.268 318.3 8.5 316 10.1
2009-03-02 07:52:53 51°14.267 2°55.255 317.8 8.5 316 9.6
2009-03-02 07:52:58 51°14.275 2°55.241 316.7 8.7 314 9.6
2009-03-02 07:53:03 51°14.283 2°55.227 315.3 8.7 314 10.1
2009-03-02 07:53:08 51°14.292 2°55.213 315.1 8.8 314 9.7
2009-03-02 07:53:13 51°14.3 2°55.199 314.6 8.9 313 9.7
2009-03-02 07:53:18 51°14.308 2°55.184 314.1 9 313 9.7
2009-03-02 07:53:23 51°14.317 2°55.17 314 9 313 9.7
2009-03-02 07:53:28 51°14.325 2°55.155 314.4 9.1 313 9.8
2009-03-02 07:53:33 51°14.334 2°55.14 314.4 9.2 312 9.8
2009-03-02 07:53:38 51°14.343 2°55.125 313.8 9.3 313 9.8
2009-03-02 07:53:43 51°14.352 2°55.11 313.7 9.3 313 9.8
2009-03-02 07:53:48 51°14.361 2°55.095 314.7 9.4 314 9.9
2009-03-02 07:53:53 51°14.369 2°55.08 315.3 9.4 312 10
2009-03-02 07:53:58 51°14.378 2°55.064 314.3 9.4 311 10.1
2009-03-02 07:54:03 51°14.386 2°55.048 312.7 9.5 309 10.1
2009-03-02 07:54:08 51°14.394 2°55.032 311.8 9.5 309 10.2
2009-03-02 07:54:13 51°14.403 2°55.015 311.2 9.5 308 10.2
2009-03-02 07:54:18 51°14.411 2°54.998 310.4 9.6 307 10.2
2009-03-02 07:54:23 51°14.418 2°54.981 309.8 9.6 308 10
2009-03-02 07:54:28 51°14.427 2°54.964 310 9.7 309 10.1
2009-03-02 07:54:33 51°14.435 2°54.948 311.5 9.7 310 10.2
2009-03-02 07:54:38 51°14.445 2°54.932 314 9.7 312 10.2
2009-03-02 07:54:43 51°14.454 2°54.916 316.9 9.8 312 10.3
2009-03-02 07:54:48 51°14.463 2°54.9 318.7 9.8 313 10.4
2009-03-02 07:54:53 51°14.472 2°54.884 320.2 9.8 314 10.3
2009-03-02 07:54:58 51°14.482 2°54.869 321.3 9.8 315 10.2
2009-03-02 07:55:03 51°14.492 2°54.854 323.1 9.9 318 10.2
2009-03-02 07:55:08 51°14.502 2°54.839 324.9 10 317 10.1
2009-03-02 07:55:13 51°14.513 2°54.824 325.7 10.1 319 10.1
2009-03-02 07:55:18 51°14.523 2°54.809 326.4 10.2 320 10
2009-03-02 07:55:23 51°14.534 2°54.795 327.4 10.3 320 9.9
2009-03-02 07:55:28 51°14.545 2°54.78 328 10.3 321 9.8
2009-03-02 07:55:32 51°14.555 2°54.769 328.4 10.4 321 9.8
2009-03-02 07:55:38 51°14.568 2°54.752 329.2 10.4 324 9.8
2009-03-02 07:55:43 51°14.58 2°54.738 330.6 10.6 324 9.9
2009-03-02 07:55:48 51°14.592 2°54.725 331.7 10.6 325 9.6
2009-03-02 07:55:53 51°14.604 2°54.712 332.4 10.6 326 9.6
2009-03-02 07:55:58 51°14.617 2°54.699 333.1 10.7 327 9.5
2009-03-02 07:56:03 51°14.629 2°54.686 334 10.7 327 9.5
2009-03-02 07:56:08 51°14.642 2°54.673 334.5 10.8 327 9.6
2009-03-02 07:56:13 51°14.655 2°54.661 334.8 10.9 328 9.5
2009-03-02 07:56:18 51°14.668 2°54.648 335 11 329 9.6
2009-03-02 07:56:23 51°14.681 2°54.636 335.4 11.1 329 9.6
2009-03-02 07:56:28 51°14.694 2°54.623 335.6 11.2 329 9.5
2009-03-02 07:56:33 51°14.708 2°54.61 335.6 11.4 329 9.5
2009-03-02 07:56:38 51°14.722 2°54.597 335.6 11.5 329 9.5
2009-03-02 07:56:43 51°14.735 2°54.583 335.6 11.6 329 9.5
2009-03-02 07:56:48 51°14.749 2°54.57 335.5 11.7 328 9.5
2009-03-02 07:56:53 51°14.763 2°54.555 334.2 11.8 326 9.4
2009-03-02 07:56:58 51°14.776 2°54.54 333.2 11.8 327 9.3
2009-03-02 07:57:03 51°14.79 2°54.526 333.2 11.9 327 9.2
2009-03-02 07:57:08 51°14.803 2°54.511 332.9 11.9 327 9.3
2009-03-02 07:57:13 51°14.817 2°54.496 332.7 11.9 327 9.3
2009-03-02 07:57:18 51°14.831 2°54.481 332.8 12 326 9.3
2009-03-02 07:57:23 51°14.845 2°54.467 332.3 11.9 327 9.2
2009-03-02 07:57:28 51°14.859 2°54.452 332.4 11.9 327 9.2
2009-03-02 07:57:33 51°14.872 2°54.438 332.9 12 326 9.1
2009-03-02 07:57:38 51°14.886 2°54.423 332.7 12 326 9
2009-03-02 07:57:43 51°14.9 2°54.408 332.5 11.9 326 8.8
2009-03-02 07:57:48 51°14.913 2°54.393 332.5 11.9 326 8.7
2009-03-02 07:57:53 51°14.927 2°54.379 332.3 11.9 326 8.6
2009-03-02 07:57:58 51°14.941 2°54.364 332.3 11.9 325 8.4
2009-03-02 07:58:03 51°14.954 2°54.35 331.9 11.8 326 8
2009-03-02 07:58:08 51°14.968 2°54.335 331.9 11.8 325 8
2009-03-02 07:58:13 51°14.981 2°54.32 331.8 11.8 326 8
2009-03-02 07:58:18 51°14.995 2°54.305 331.8 11.8 326 7.8
2009-03-02 07:58:23 51°15.008 2°54.291 331.8 11.8 326 7.8
2009-03-02 07:58:28 51°15.022 2°54.276 332 11.8 325 7.8
2009-03-02 07:58:33 51°15.035 2°54.26 331.3 11.8 324 7.9
2009-03-02 07:58:38 51°15.048 2°54.245 330.4 11.9 324 8.1
2009-03-02 07:58:43 51°15.061 2°54.229 330 11.9 323 7.8
2009-03-02 07:58:48 51°15.075 2°54.213 329.4 11.9 323 7.9
2009-03-02 07:58:53 51°15.088 2°54.198 329 11.8 324 7.9
2009-03-02 07:58:58 51°15.102 2°54.183 329.8 11.9 326 7.9
2009-03-02 07:59:03 51°15.115 2°54.168 330.9 11.8 325 8.1
2009-03-02 07:59:08 51°15.129 2°54.154 331.1 11.9 326 8
2009-03-02 07:59:13 51°15.142 2°54.139 331.4 11.9 326 8
2009-03-02 07:59:18 51°15.156 2°54.124 331.5 11.9 325 8.1
2009-03-02 07:59:23 51°15.169 2°54.109 331.2 11.9 326 8.1
2009-03-02 07:59:28 51°15.183 2°54.094 331.1 11.9 326 8.2
2009-03-02 07:59:33 51°15.197 2°54.079 331.6 11.9 326 8.2
2009-03-02 07:59:38 51°15.21 2°54.065 331.7 11.9 326 8.3
2009-03-02 07:59:43 51°15.224 2°54.05 331.8 11.9 327 8.4
2009-03-02 07:59:48 51°15.238 2°54.036 332 11.9 327 8.6
2009-03-02 07:59:53 51°15.252 2°54.021 332.5 11.9 327 8.6
2009-03-02 07:59:58 51°15.266 2°54.007 332.6 11.9 327 8.5
2009-03-02 08:00:03 51°15.279 2°53.992 332.5 12 327 8.5
2009-03-02 08:00:08 51°15.293 2°53.978 332.3 11.9 327 8.8
2009-03-02 08:00:13 51°15.307 2°53.964 332.4 12 327 8.9
2009-03-02 08:00:18 51°15.321 2°53.949 332.4 12 326 8.8
2009-03-02 08:00:23 51°15.335 2°53.934 332.2 12 326 9
2009-03-02 08:00:28 51°15.349 2°53.919 332.2 12 326 9.1
2009-03-02 08:00:33 51°15.363 2°53.904 332.5 12 325 9.2
2009-03-02 08:00:38 51°15.376 2°53.889 332.2 12 325 9.4
2009-03-02 08:00:43 51°15.39 2°53.874 331.9 12 325 9.3
2009-03-02 08:00:48 51°15.404 2°53.859 331.9 12 326 9.5
2009-03-02 08:00:53 51°15.417 2°53.844 332.5 12 326 9.6
2009-03-02 08:00:58 51°15.431 2°53.829 332.5 12 326 9.8
2009-03-02 08:01:03 51°15.445 2°53.815 332.5 12 326 9.8
2009-03-02 08:01:08 51°15.459 2°53.8 332.7 12 326 9.9
2009-03-02 08:01:13 51°15.473 2°53.785 332.7 12 326 10.3
2009-03-02 08:01:18 51°15.486 2°53.771 332.7 12 327 10.3
2009-03-02 08:01:23 51°15.501 2°53.756 333.1 12 326 10.3
2009-03-02 08:01:28 51°15.514 2°53.742 333.1 12 327 10.4
2009-03-02 08:01:33 51°15.528 2°53.727 333 12 327 10.4
2009-03-02 08:01:38 51°15.542 2°53.713 333 12 326 10.4
2009-03-02 08:01:43 51°15.556 2°53.698 332.9 12 327 10.4
2009-03-02 08:01:48 51°15.57 2°53.684 332.9 12 327 10.7
2009-03-02 08:01:53 51°15.585 2°53.67 333.6 12 328 10.6
2009-03-02 08:01:58 51°15.599 2°53.656 334 12 328 10.6
2009-03-02 08:02:03 51°15.613 2°53.642 334.6 12 329 10.7
2009-03-02 08:02:08 51°15.627 2°53.628 334.7 12 329 10.9
2009-03-02 08:02:13 51°15.641 2°53.615 335.2 12 328 11
2009-03-02 08:02:18 51°15.655 2°53.601 334.9 12 330 11.1
2009-03-02 08:02:23 51°15.67 2°53.588 335.4 12 330 11.1
2009-03-02 08:02:28 51°15.684 2°53.575 336.2 12 330 11.1
2009-03-02 08:02:33 51°15.699 2°53.562 336.5 12 331 10.9
2009-03-02 08:02:38 51°15.713 2°53.549 337.2 12 331 11.4
2009-03-02 08:02:43 51°15.728 2°53.536 337.4 12 331 11.3
2009-03-02 08:02:48 51°15.743 2°53.523 337.5 12 331 11.1
2009-03-02 08:02:53 51°15.757 2°53.511 337.6 12 331 11.3
2009-03-02 08:02:58 51°15.772 2°53.498 337.6 12 331 11.5
2009-03-02 08:03:03 51°15.787 2°53.485 337.6 12 331 11.2
2009-03-02 08:03:08 51°15.801 2°53.472 337.5 12 331 11.7
2009-03-02 08:03:13 51°15.816 2°53.459 337.5 12 331 11.7
2009-03-02 08:03:18 51°15.83 2°53.445 337.5 12 331 11.7
2009-03-02 08:03:23 51°15.845 2°53.433 337.6 12.1 331 11.6
2009-03-02 08:03:28 51°15.86 2°53.419 337.4 12.1 330 11.8
2009-03-02 08:03:33 51°15.874 2°53.406 336.9 12.1 330 11.5
2009-03-02 08:03:38 51°15.889 2°53.393 336.9 12.1 331 11.7
2009-03-02 08:03:43 51°15.903 2°53.38 336.9 12.1 331 11.4
2009-03-02 08:03:48 51°15.918 2°53.366 336.9 12.1 331 11.5
2009-03-02 08:03:53 51°15.933 2°53.353 336.9 12.1 331 11.5
2009-03-02 08:03:58 51°15.947 2°53.34 336.9 12.1 331 11.1
2009-03-02 08:04:03 51°15.962 2°53.327 336.7 12.1 331 11.5
2009-03-02 08:04:08 51°15.977 2°53.314 336.5 12.1 331 11.6
2009-03-02 08:04:13 51°15.991 2°53.301 336.7 12.1 331 11.1
2009-03-02 08:04:18 51°16.006 2°53.287 336.7 12.1 330 11.2
2009-03-02 08:04:23 51°16.02 2°53.274 336.4 12.2 330 11.2
2009-03-02 08:04:28 51°16.035 2°53.261 336.1 12.2 330 11.2
2009-03-02 08:04:33 51°16.05 2°53.248 336.1 12.1 332 11.3
2009-03-02 08:04:38 51°16.065 2°53.235 337.3 12.1 332 11.3
2009-03-02 08:04:43 51°16.08 2°53.223 338.2 12.1 334 11.4
2009-03-02 08:04:48 51°16.095 2°53.211 338.9 12.1 333 11.3
2009-03-02 08:04:53 51°16.11 2°53.2 339.4 12.1 335 11.3
2009-03-02 08:04:58 51°16.125 2°53.188 340.3 12.1 335 11.3
2009-03-02 08:05:03 51°16.14 2°53.177 340.8 12.1 336 11.4
2009-03-02 08:05:08 51°16.156 2°53.166 341.1 12.1 335 11.4
2009-03-02 08:05:13 51°16.171 2°53.155 341.4 12.1 336 11.3
2009-03-02 08:05:18 51°16.186 2°53.144 341.7 12.1 335 11.4
2009-03-02 08:05:23 51°16.202 2°53.133 341.5 12.1 336 11.3
2009-03-02 08:05:28 51°16.217 2°53.122 341.4 12.1 336 11.4
2009-03-02 08:05:33 51°16.232 2°53.111 341.6 12.1 335 11.4
2009-03-02 08:05:38 51°16.247 2°53.1 341.5 12.1 336 11.4
2009-03-02 08:05:43 51°16.263 2°53.089 341.4 12.1 336 11.4
2009-03-02 08:05:48 51°16.278 2°53.078 341.4 12.1 336 11.5
2009-03-02 08:05:53 51°16.293 2°53.067 341.3 12.1 336 11.4
2009-03-02 08:05:58 51°16.308 2°53.056 341.5 12.1 336 11.4
2009-03-02 08:06:03 51°16.324 2°53.045 341.5 12.1 335 11.5
2009-03-02 08:06:08 51°16.339 2°53.034 341.2 12.1 336 11.4
2009-03-02 08:06:13 51°16.354 2°53.023 341.3 12.1 335 11.4
2009-03-02 08:06:18 51°16.369 2°53.012 341 12.1 335 11.4
2009-03-02 08:06:23 51°16.384 2°53 340.8 12.1 334 11.4
2009-03-02 08:06:28 51°16.4 2°52.989 340.4 12.1 336 11.4
2009-03-02 08:06:33 51°16.415 2°52.977 340.5 12.2 335 11.5
2009-03-02 08:06:38 51°16.43 2°52.966 340.5 12.2 335 11.4
2009-03-02 08:06:43 51°16.446 2°52.955 340.5 12.1 335 11.4
2009-03-02 08:06:48 51°16.461 2°52.943 340.8 12.1 335 11.4
2009-03-02 08:06:53 51°16.476 2°52.932 340.8 12.1 335 11.5
2009-03-02 08:06:58 51°16.491 2°52.921 341 12.1 335 11.4
2009-03-02 08:07:03 51°16.507 2°52.91 341 12.1 335 11.2
2009-03-02 08:07:08 51°16.522 2°52.899 341.1 12.1 336 11.3
2009-03-02 08:07:13 51°16.537 2°52.888 341.2 12.1 336 11.3
2009-03-02 08:07:18 51°16.552 2°52.877 341.2 12.1 336 11.4
2009-03-02 08:07:23 51°16.568 2°52.866 341.4 12.1 336 11.3
2009-03-02 08:07:28 51°16.583 2°52.855 341.5 12.1 335 11.3
2009-03-02 08:07:33 51°16.598 2°52.844 341.4 12.1 336 11.1
2009-03-02 08:07:38 51°16.614 2°52.833 341.4 12.1 335 11.1
2009-03-02 08:07:43 51°16.629 2°52.822 341.1 12.1 335 11
2009-03-02 08:07:48 51°16.644 2°52.811 340.9 12.1 336 10.9
2009-03-02 08:07:53 51°16.659 2°52.8 341.2 12.1 335 10.8
2009-03-02 08:07:58 51°16.674 2°52.788 341.2 12.1 335 10.7
2009-03-02 08:08:03 51°16.69 2°52.778 340.9 12.1 336 10.6
2009-03-02 08:08:08 51°16.705 2°52.767 341 12.1 335 10.4
2009-03-02 08:08:13 51°16.72 2°52.755 340.8 12.1 335 10.3
2009-03-02 08:08:18 51°16.735 2°52.744 340.5 12.1 336 10
2009-03-02 08:08:23 51°16.751 2°52.733 340.9 12 336 9.7
2009-03-02 08:08:28 51°16.766 2°52.722 340.9 12 335 9.4
2009-03-02 08:08:33 51°16.781 2°52.712 340.9 12 337 9.2
2009-03-02 08:08:38 51°16.796 2°52.701 341.3 12 336 9.2
2009-03-02 08:08:43 51°16.811 2°52.69 341.2 12 336 9.3
2009-03-02 08:08:48 51°16.827 2°52.679 341 12 336 9.3
2009-03-02 08:08:53 51°16.842 2°52.669 341.1 12 336 9.1
2009-03-02 08:08:58 51°16.857 2°52.658 341.1 12 335 9.1
2009-03-02 08:09:03 51°16.872 2°52.647 340.8 12 336 9.1
2009-03-02 08:09:08 51°16.887 2°52.636 340.5 12 336 9.1
2009-03-02 08:09:13 51°16.903 2°52.625 340.9 12.1 336 9.3
2009-03-02 08:09:18 51°16.918 2°52.614 341 12.1 336 9.4
2009-03-02 08:09:23 51°16.933 2°52.604 340.8 12.1 337 9.3
2009-03-02 08:09:28 51°16.949 2°52.593 340.8 12.1 336 9.5
2009-03-02 08:09:33 51°16.964 2°52.582 340.7 12.1 337 9.4
2009-03-02 08:09:38 51°16.979 2°52.571 340.8 12.1 336 9.3
2009-03-02 08:09:43 51°16.995 2°52.56 340.5 12.1 337 9.3
2009-03-02 08:09:48 51°17.01 2°52.55 340.5 12.1 336 9.2
2009-03-02 08:09:53 51°17.025 2°52.539 340.6 12 337 9.2
2009-03-02 08:09:58 51°17.041 2°52.529 340.8 12 336 9.2
2009-03-02 08:10:03 51°17.056 2°52.518 340.8 12.1 336 9.3
2009-03-02 08:10:08 51°17.071 2°52.507 340.5 12.1 336 9.2
2009-03-02 08:10:13 51°17.087 2°52.497 340.3 12.1 337 9.2
2009-03-02 08:10:18 51°17.102 2°52.486 340.9 12.1 337 9.3
2009-03-02 08:10:23 51°17.118 2°52.475 341.4 12 336 9.3
2009-03-02 08:10:28 51°17.133 2°52.464 341.2 12.1 336 9.4
2009-03-02 08:10:33 51°17.148 2°52.453 340.7 12.1 336 9.3
2009-03-02 08:10:38 51°17.164 2°52.442 340.7 12.1 336 9.5
2009-03-02 08:10:43 51°17.179 2°52.432 340.3 12.1 337 9.4
2009-03-02 08:10:48 51°17.194 2°52.421 340.6 12.1 336 9.6
2009-03-02 08:10:53 51°17.21 2°52.41 340.9 12.1 336 9.5
2009-03-02 08:10:58 51°17.225 2°52.399 340.7 12.1 336 9.7
2009-03-02 08:11:03 51°17.24 2°52.388 340.5 12.1 336 9.7
2009-03-02 08:11:08 51°17.255 2°52.377 340.6 12 336 9.8
2009-03-02 08:11:13 51°17.271 2°52.367 340.9 12.1 337 9.9
2009-03-02 08:11:18 51°17.286 2°52.357 341.2 12.1 337 9.9
2009-03-02 08:11:23 51°17.301 2°52.347 341.2 12 338 9.9
2009-03-02 08:11:28 51°17.317 2°52.336 341.8 12 336 9.8
2009-03-02 08:11:33 51°17.332 2°52.325 341.3 12 336 9.9
2009-03-02 08:11:38 51°17.347 2°52.314 341.1 12 336 9.9
2009-03-02 08:11:43 51°17.362 2°52.303 340.9 12 336 9.8
2009-03-02 08:11:48 51°17.378 2°52.293 340.8 12 336 10
2009-03-02 08:11:53 51°17.393 2°52.282 341.1 11.9 336 9.9
2009-03-02 08:11:58 51°17.408 2°52.272 341.5 11.9 336 10
2009-03-02 08:12:03 51°17.423 2°52.261 341.6 11.9 336 9.9
2009-03-02 08:12:08 51°17.438 2°52.251 341.7 11.9 336 9.9
2009-03-02 08:12:13 51°17.453 2°52.24 342 11.9 337 9.9
2009-03-02 08:12:18 51°17.468 2°52.23 342 11.9 336 10
2009-03-02 08:12:23 51°17.484 2°52.219 342 11.9 337 9.9
2009-03-02 08:12:28 51°17.499 2°52.209 342.3 11.9 336 9.9
2009-03-02 08:12:33 51°17.514 2°52.199 342.1 11.9 337 10
2009-03-02 08:12:38 51°17.529 2°52.188 342.2 11.9 337 10
2009-03-02 08:12:43 51°17.544 2°52.178 342.6 11.9 337 10.1
2009-03-02 08:12:48 51°17.559 2°52.167 342.6 11.9 336 10
2009-03-02 08:12:53 51°17.575 2°52.158 342.2 11.9 339 10
2009-03-02 08:12:58 51°17.59 2°52.148 343 11.9 338 10
2009-03-02 08:13:03 51°17.606 2°52.139 343.6 11.9 340 9.9
2009-03-02 08:13:08 51°17.621 2°52.13 344.5 11.8 340 9.9
2009-03-02 08:13:13 51°17.637 2°52.122 345.2 11.8 340 9.8
2009-03-02 08:13:18 51°17.652 2°52.113 345.6 11.8 341 9.9
2009-03-02 08:13:23 51°17.668 2°52.104 346.3 11.8 340 9.8
2009-03-02 08:13:28 51°17.683 2°52.096 346.4 11.8 341 9.8
2009-03-02 08:13:33 51°17.699 2°52.087 346.6 11.8 340 9.9
2009-03-02 08:13:38 51°17.714 2°52.079 346.5 11.8 342 9.9
2009-03-02 08:13:43 51°17.73 2°52.071 346.7 11.8 341 9.9
2009-03-02 08:13:48 51°17.745 2°52.062 347 11.8 341 9.9
2009-03-02 08:13:53 51°17.761 2°52.054 347 11.8 342 9.8
2009-03-02 08:13:58 51°17.776 2°52.046 347.1 11.8 342 9.9
2009-03-02 08:14:03 51°17.792 2°52.038 347.6 11.8 343 9.8
2009-03-02 08:14:08 51°17.807 2°52.03 348 11.8 342 9.8
2009-03-02 08:14:13 51°17.823 2°52.022 348 11.8 342 9.8
2009-03-02 08:14:18 51°17.839 2°52.014 347.7 11.8 343 9.8
2009-03-02 08:14:23 51°17.854 2°52.007 347.7 11.8 343 9.7
2009-03-02 08:14:28 51°17.87 2°51.999 348 11.9 343 9.8
2009-03-02 08:14:33 51°17.886 2°51.991 348.2 11.8 343 9.8
2009-03-02 08:14:38 51°17.901 2°51.983 348.5 11.8 343 9.8
2009-03-02 08:14:43 51°17.917 2°51.975 348.4 11.8 342 9.8
2009-03-02 08:14:48 51°17.933 2°51.967 347.8 11.8 342 9.9
2009-03-02 08:14:53 51°17.948 2°51.959 347.7 11.9 343 9.9
2009-03-02 08:14:58 51°17.964 2°51.951 347.9 11.8 343 9.9
2009-03-02 08:15:03 51°17.979 2°51.943 348.2 11.8 342 10
2009-03-02 08:15:08 51°17.995 2°51.935 348.2 11.9 342 10
2009-03-02 08:15:13 51°18.011 2°51.927 348 11.9 342 10
2009-03-02 08:15:18 51°18.027 2°51.92 348 11.9 343 10.1
2009-03-02 08:15:23 51°18.042 2°51.912 348.2 11.9 342 10.1
2009-03-02 08:15:28 51°18.058 2°51.904 348.3 11.9 343 10.1
2009-03-02 08:15:33 51°18.074 2°51.896 348.5 11.9 343 10.1
2009-03-02 08:15:38 51°18.089 2°51.888 348.5 11.8 342 10.1
2009-03-02 08:15:43 51°18.105 2°51.88 348.4 11.9 342 10.2
2009-03-02 08:15:48 51°18.121 2°51.872 348.5 11.9 342 10.2
2009-03-02 08:15:53 51°18.136 2°51.864 348 11.8 343 10.4
2009-03-02 08:15:58 51°18.152 2°51.857 348.5 11.9 343 10.4
2009-03-02 08:16:03 51°18.168 2°51.849 349.2 11.9 344 10.4
2009-03-02 08:16:08 51°18.184 2°51.842 349.8 11.9 344 10.5
2009-03-02 08:16:13 51°18.2 2°51.835 350.5 11.9 344 10.6
2009-03-02 08:16:18 51°18.216 2°51.828 350.6 11.9 344 10.6
2009-03-02 08:16:23 51°18.231 2°51.819 350.2 11.9 342 10.7
2009-03-02 08:16:28 51°18.247 2°51.812 349.4 11.9 343 10.7
2009-03-02 08:16:33 51°18.263 2°51.804 349.2 11.9 342 10.8
2009-03-02 08:16:38 51°18.279 2°51.796 348.3 11.9 344 10.9
2009-03-02 08:16:43 51°18.295 2°51.789 349 11.9 343 11
2009-03-02 08:16:48 51°18.31 2°51.782 349.5 11.9 344 11
2009-03-02 08:16:53 51°18.326 2°51.774 349.8 11.9 344 11.1
2009-03-02 08:16:58 51°18.342 2°51.767 350.1 12 343 11.2
2009-03-02 08:17:03 51°18.358 2°51.759 349.4 12 342 11.3
2009-03-02 08:17:08 51°18.374 2°51.75 348.8 12 342 11.4
2009-03-02 08:17:13 51°18.39 2°51.742 348.2 12 342 11.4
2009-03-02 08:17:18 51°18.405 2°51.734 348 12 342 11.6
2009-03-02 08:17:23 51°18.421 2°51.726 347.8 12 343 11.6
2009-03-02 08:17:28 51°18.437 2°51.718 348.3 12 343 11.7
2009-03-02 08:17:33 51°18.453 2°51.711 349 12 344 11.8
2009-03-02 08:17:38 51°18.469 2°51.703 349.7 12.1 344 11.9
2009-03-02 08:17:43 51°18.485 2°51.696 349.8 12.1 344 11.9
2009-03-02 08:17:48 51°18.502 2°51.689 350.3 12.1 344 12
2009-03-02 08:17:53 51°18.518 2°51.681 350.5 12.1 344 12.2
2009-03-02 08:17:58 51°18.534 2°51.674 350.5 12.1 344 12.2
2009-03-02 08:18:03 51°18.55 2°51.667 350.6 12.1 344 12.3
2009-03-02 08:18:08 51°18.566 2°51.659 350.8 12.1 344 12.4
2009-03-02 08:18:13 51°18.582 2°51.652 350.3 12.1 344 12.5
2009-03-02 08:18:18 51°18.598 2°51.644 350.2 12.1 344 12.7
2009-03-02 08:18:23 51°18.614 2°51.637 350.1 12.1 344 12.8
2009-03-02 08:18:28 51°18.63 2°51.629 350.2 12.1 343 12.8
2009-03-02 08:18:33 51°18.647 2°51.621 350.1 12.1 344 12.9
2009-03-02 08:18:38 51°18.663 2°51.614 349.7 12.1 344 12.9
2009-03-02 08:18:43 51°18.679 2°51.606 349.9 12.1 342 13.1
2009-03-02 08:18:48 51°18.695 2°51.598 349.4 12.1 342 13.1
2009-03-02 08:18:53 51°18.711 2°51.59 348.8 12.1 342 13.2
2009-03-02 08:18:58 51°18.727 2°51.581 348.5 12.1 342 13.3
2009-03-02 08:19:03 51°18.743 2°51.573 348.6 12.1 343 13.4
2009-03-02 08:19:08 51°18.759 2°51.566 348.8 12.2 343 13.4
2009-03-02 08:19:13 51°18.775 2°51.557 348.9 12.2 341 13.5
2009-03-02 08:19:18 51°18.791 2°51.549 348.1 12.2 343 13.6
2009-03-02 08:19:23 51°18.807 2°51.541 348.4 12.2 343 13.7
2009-03-02 08:19:28 51°18.823 2°51.534 349.1 12.2 344 13.8
2009-03-02 08:19:33 51°18.84 2°51.526 349.3 12.2 343 13.8
2009-03-02 08:19:38 51°18.856 2°51.518 349.4 12.2 344 13.8
2009-03-02 08:19:43 51°18.872 2°51.51 349.7 12.2 343 14
2009-03-02 08:19:48 51°18.888 2°51.503 349.3 12.2 344 14
2009-03-02 08:19:53 51°18.904 2°51.495 349.2 12.2 342 14.2
2009-03-02 08:19:58 51°18.921 2°51.487 348.9 12.2 343 14.1
2009-03-02 08:20:03 51°18.937 2°51.479 348.7 12.2 342 14.2
2009-03-02 08:20:08 51°18.953 2°51.471 348.7 12.2 343 14.2
2009-03-02 08:20:13 51°18.969 2°51.463 348.7 12.2 342 14.2
2009-03-02 08:20:18 51°18.985 2°51.454 348.5 12.2 342 14
2009-03-02 08:20:23 51°19.001 2°51.446 347.8 12.2 342 14.3
2009-03-02 08:20:28 51°19.017 2°51.438 348.1 12.2 343 14.4
2009-03-02 08:20:33 51°19.033 2°51.429 348.5 12.2 341 14.5
2009-03-02 08:20:38 51°19.049 2°51.422 347.8 12.1 343 14.7
2009-03-02 08:20:43 51°19.065 2°51.413 348.4 12 342 14.6
2009-03-02 08:20:48 51°19.081 2°51.406 348.5 12 343 14.5
2009-03-02 08:20:53 51°19.097 2°51.397 348.8 12 342 14.5
2009-03-02 08:20:58 51°19.113 2°51.39 348.8 11.9 343 14.6
2009-03-02 08:21:03 51°19.128 2°51.381 348.8 11.9 342 14.6
2009-03-02 08:21:08 51°19.144 2°51.374 348.8 11.8 343 14.6
2009-03-02 08:21:13 51°19.16 2°51.366 348.8 11.8 343 14.7
2009-03-02 08:21:18 51°19.175 2°51.358 349.2 11.9 342 14.6
2009-03-02 08:21:23 51°19.191 2°51.35 349.2 11.9 342 14.6
2009-03-02 08:21:28 51°19.207 2°51.342 349 11.9 342 14.6
2009-03-02 08:21:33 51°19.222 2°51.333 348.9 11.9 342 14.7
2009-03-02 08:21:38 51°19.238 2°51.326 348.7 11.9 342 14.7
2009-03-02 08:21:43 51°19.254 2°51.318 348.7 11.9 342 14.6
2009-03-02 08:21:48 51°19.269 2°51.31 348.9 11.9 343 14.7
2009-03-02 08:21:53 51°19.285 2°51.302 349 11.9 343 14.7
2009-03-02 08:21:58 51°19.301 2°51.294 349 11.9 342 14.7
2009-03-02 08:22:03 51°19.317 2°51.286 348.8 11.8 343 14.6
2009-03-02 08:22:08 51°19.332 2°51.278 348.7 11.9 342 14.7
2009-03-02 08:22:13 51°19.348 2°51.269 348.7 11.9 342 14.6
2009-03-02 08:22:18 51°19.363 2°51.261 348.6 11.9 342 14.6
2009-03-02 08:22:23 51°19.379 2°51.254 348.9 11.9 342 14.6
2009-03-02 08:22:28 51°19.394 2°51.244 348.6 11.9 340 14.6
2009-03-02 08:22:33 51°19.41 2°51.236 347.5 11.9 342 14.5
2009-03-02 08:22:38 51°19.425 2°51.227 347.7 11.9 339 14.6
2009-03-02 08:22:43 51°19.441 2°51.218 346.9 11.9 340 14.4
2009-03-02 08:22:48 51°19.456 2°51.208 346.5 11.9 339 14.5
2009-03-02 08:22:53 51°19.472 2°51.199 346.3 11.9 340 14.5
2009-03-02 08:22:58 51°19.488 2°51.19 346.3 12 339 14.4
2009-03-02 08:23:03 51°19.503 2°51.181 346.3 11.9 341 14.4
2009-03-02 08:23:08 51°19.519 2°51.173 347.1 12 341 14.3
2009-03-02 08:23:13 51°19.535 2°51.164 347.7 12 341 14.4
2009-03-02 08:23:18 51°19.551 2°51.156 347.9 12 341 14.2
2009-03-02 08:23:23 51°19.566 2°51.147 348.4 12 342 14.2
2009-03-02 08:23:28 51°19.582 2°51.14 348.5 12.1 343 14
2009-03-02 08:23:33 51°19.598 2°51.132 349.2 12 343 14
2009-03-02 08:23:38 51°19.614 2°51.124 349.3 12 343 13.8
2009-03-02 08:23:43 51°19.63 2°51.116 349.2 12 343 13.7
2009-03-02 08:23:48 51°19.646 2°51.108 349.2 12 343 13.5
2009-03-02 08:23:53 51°19.662 2°51.1 349.3 12 343 13.1
2009-03-02 08:23:58 51°19.677 2°51.092 349.6 12 342 13
2009-03-02 08:24:03 51°19.693 2°51.083 348.9 12 340 12.8
2009-03-02 08:24:08 51°19.709 2°51.075 347.7 12 342 12.5
2009-03-02 08:24:13 51°19.725 2°51.066 347.8 12 340 12.1
2009-03-02 08:24:18 51°19.74 2°51.057 347.4 12 339 11.8
2009-03-02 08:24:23 51°19.756 2°51.046 345.6 12 338 11.8
2009-03-02 08:24:28 51°19.771 2°51.037 344.8 12.1 339 11.7
2009-03-02 08:24:33 51°19.787 2°51.026 344.8 12.1 337 11.7
2009-03-02 08:24:38 51°19.803 2°51.016 344.1 12.1 337 11.8
2009-03-02 08:24:43 51°19.818 2°51.005 343.8 12.2 337 11.9
2009-03-02 08:24:48 51°19.834 2°50.995 343.6 12.2 337 12
2009-03-02 08:24:53 51°19.849 2°50.984 343.2 12.2 335 12.1
2009-03-02 08:24:58 51°19.864 2°50.972 342.5 12.2 335 11.9
2009-03-02 08:25:03 51°19.88 2°50.961 341.8 12.3 335 12
2009-03-02 08:25:08 51°19.895 2°50.95 341.3 12.2 336 12.1
2009-03-02 08:25:13 51°19.911 2°50.939 341.7 12.2 337 12.1
2009-03-02 08:25:18 51°19.926 2°50.928 342.8 12.2 337 12.1
2009-03-02 08:25:23 51°19.942 2°50.918 343.2 12.3 337 12.2
2009-03-02 08:25:28 51°19.958 2°50.907 343.4 12.3 337 12.5
2009-03-02 08:25:33 51°19.974 2°50.897 343.9 12.2 338 12.6
2009-03-02 08:25:38 51°19.989 2°50.887 344.2 12.2 338 12.7
2009-03-02 08:25:43 51°20.005 2°50.877 344.5 12.3 338 12.6
2009-03-02 08:25:48 51°20.021 2°50.867 344.1 12.3 337 12.6
2009-03-02 08:25:53 51°20.037 2°50.857 343.8 12.2 338 12.6
2009-03-02 08:25:58 51°20.053 2°50.846 344 12.3 338 12.8
2009-03-02 08:26:03 51°20.069 2°50.836 344.1 12.3 337 12.8
2009-03-02 08:26:08 51°20.085 2°50.825 344.1 12.3 337 13
2009-03-02 08:26:13 51°20.1 2°50.815 343.9 12.4 337 12.9
2009-03-02 08:26:18 51°20.116 2°50.804 343.8 12.3 337 13
2009-03-02 08:26:23 51°20.131 2°50.793 343.9 12.3 335 13
2009-03-02 08:26:28 51°20.146 2°50.78 342.8 12.4 332 13.1
2009-03-02 08:26:33 51°20.162 2°50.768 340.9 12.4 334 13.7
2009-03-02 08:26:38 51°20.177 2°50.754 340.2 12.5 330 13.9
2009-03-02 08:26:43 51°20.192 2°50.74 338.1 12.4 330 14.1
2009-03-02 08:26:48 51°20.206 2°50.726 336.5 12.5 328 14.3
2009-03-02 08:26:53 51°20.221 2°50.71 334.7 12.5 327 14.5
2009-03-02 08:26:58 51°20.235 2°50.695 333.8 12.5 326 14.7
2009-03-02 08:27:03 51°20.25 2°50.68 332.9 12.5 325 15
2009-03-02 08:27:08 51°20.264 2°50.664 331.8 12.6 324 15
2009-03-02 08:27:13 51°20.278 2°50.648 331.1 12.5 324 15.1
2009-03-02 08:27:18 51°20.291 2°50.629 329.7 12.6 318 15.2
2009-03-02 08:27:23 51°20.305 2°50.611 326.4 12.6 320 15.3
2009-03-02 08:27:28 51°20.318 2°50.592 325 12.6 317 15.5
2009-03-02 08:27:33 51°20.33 2°50.573 323.3 12.7 317 15.6
2009-03-02 08:27:38 51°20.343 2°50.553 322.1 12.7 315 15.9
2009-03-02 08:27:43 51°20.355 2°50.533 321.1 12.7 315 16.1
2009-03-02 08:27:48 51°20.368 2°50.513 320.3 12.7 315 16.2
2009-03-02 08:27:53 51°20.38 2°50.493 319.6 12.7 314 16.4
2009-03-02 08:27:58 51°20.392 2°50.472 318.8 12.8 313 16.7
2009-03-02 08:28:03 51°20.404 2°50.452 318.4 12.7 314 16.9
2009-03-02 08:28:08 51°20.416 2°50.432 318.2 12.7 313 17.1
2009-03-02 08:28:13 51°20.429 2°50.412 318.2 12.7 314 17.3
2009-03-02 08:28:18 51°20.441 2°50.391 318.1 12.8 313 17.7
2009-03-02 08:28:23 51°20.453 2°50.371 318 12.8 314 17.9
2009-03-02 08:28:28 51°20.465 2°50.35 318.2 12.8 313 18.1
2009-03-02 08:28:33 51°20.477 2°50.33 318.2 12.7 314 18.4
2009-03-02 08:28:38 51°20.489 2°50.309 318.5 12.7 313 18.7
2009-03-02 08:28:43 51°20.501 2°50.288 318.3 12.8 313 18.9
2009-03-02 08:28:48 51°20.513 2°50.268 318.2 12.7 314 19.1
2009-03-02 08:28:53 51°20.525 2°50.247 318.6 12.7 313 19.5
2009-03-02 08:28:58 51°20.537 2°50.226 317.7 12.7 311 19.8
2009-03-02 08:29:03 51°20.549 2°50.205 316.9 12.7 312 19.9
2009-03-02 08:29:08 51°20.56 2°50.184 316.9 12.7 310 20.2
2009-03-02 08:29:13 51°20.572 2°50.163 316.7 12.6 312 20.4
2009-03-02 08:29:18 51°20.584 2°50.142 317.2 12.6 312 20.6
2009-03-02 08:29:23 51°20.596 2°50.122 317.9 12.6 313 20.7
2009-03-02 08:29:28 51°20.608 2°50.102 318.2 12.6 313 21
2009-03-02 08:29:33 51°20.62 2°50.082 318.8 12.6 314 21.3
2009-03-02 08:29:38 51°20.632 2°50.062 319.4 12.6 314 21.5
2009-03-02 08:29:43 51°20.644 2°50.042 319.6 12.6 314 21.6
2009-03-02 08:29:48 51°20.657 2°50.021 319.9 12.7 314 21.8
2009-03-02 08:29:53 51°20.669 2°50.001 319.9 12.6 314 21.9
2009-03-02 08:29:58 51°20.681 2°49.981 319.6 12.6 314 22
2009-03-02 08:30:03 51°20.693 2°49.961 319.5 12.6 314 22.1
2009-03-02 08:30:08 51°20.705 2°49.94 318.8 12.7 312 22
2009-03-02 08:30:13 51°20.717 2°49.92 318.8 12.6 316 22
2009-03-02 08:30:18 51°20.729 2°49.9 320.2 12.6 314 22.3
2009-03-02 08:30:23 51°20.742 2°49.881 320.6 12.6 318 22.4
2009-03-02 08:30:28 51°20.755 2°49.862 321.6 12.6 316 22.4
2009-03-02 08:30:33 51°20.767 2°49.843 321.8 12.5 317 22.5
2009-03-02 08:30:38 51°20.78 2°49.824 322.4 12.5 317 22.7
2009-03-02 08:30:43 51°20.793 2°49.805 322.9 12.6 317 22.6
2009-03-02 08:30:48 51°20.806 2°49.786 322.8 12.6 318 22.7
2009-03-02 08:30:53 51°20.819 2°49.768 323.1 12.6 318 22.5
2009-03-02 08:30:58 51°20.832 2°49.749 323.3 12.6 317 22.7
2009-03-02 08:31:03 51°20.844 2°49.73 323.2 12.6 318 22.5
2009-03-02 08:31:08 51°20.857 2°49.711 323.3 12.6 318 22.6
2009-03-02 08:31:13 51°20.87 2°49.692 323.5 12.6 318 22.6
2009-03-02 08:31:18 51°20.883 2°49.674 323.6 12.6 318 22.7
2009-03-02 08:31:23 51°20.896 2°49.655 323.6 12.6 318 22.6
2009-03-02 08:31:28 51°20.909 2°49.637 323.6 12.6 318 22.6
2009-03-02 08:31:33 51°20.922 2°49.618 323.8 12.5 318 22.6
2009-03-02 08:31:38 51°20.935 2°49.599 323.8 12.6 319 22.5
2009-03-02 08:31:43 51°20.948 2°49.581 323.9 12.6 318 22.5
2009-03-02 08:31:48 51°20.962 2°49.563 324 12.6 320 22.6
2009-03-02 08:31:53 51°20.975 2°49.545 324.5 12.6 319 22.5
2009-03-02 08:31:58 51°20.989 2°49.528 324.9 12.6 322 22.4
2009-03-02 08:32:03 51°21.003 2°49.51 325.8 12.6 320 22.5
2009-03-02 08:32:08 51°21.016 2°49.493 326 12.6 321 22.4
2009-03-02 08:32:13 51°21.03 2°49.475 326.3 12.6 321 22.3
2009-03-02 08:32:18 51°21.043 2°49.457 326.6 12.7 321 22.2
2009-03-02 08:32:23 51°21.057 2°49.44 326.7 12.6 321 22.2
2009-03-02 08:32:28 51°21.071 2°49.423 326.7 12.6 322 22.1
2009-03-02 08:32:33 51°21.084 2°49.405 327 12.7 321 22
2009-03-02 08:32:38 51°21.098 2°49.387 326.9 12.6 320 21.8
2009-03-02 08:32:43 51°21.111 2°49.37 326.4 12.7 320 21.9
2009-03-02 08:32:48 51°21.125 2°49.352 326.2 12.7 321 21.8
2009-03-02 08:32:53 51°21.138 2°49.334 326.1 12.7 319 21.9
2009-03-02 08:32:58 51°21.152 2°49.315 325.4 12.7 319 21.7
2009-03-02 08:33:03 51°21.165 2°49.297 324.5 12.7 319 21.7
2009-03-02 08:33:08 51°21.179 2°49.279 324.5 12.7 320 21.7
2009-03-02 08:33:13 51°21.192 2°49.26 325.2 12.7 320 21.6
2009-03-02 08:33:18 51°21.206 2°49.242 325.8 12.7 320 21.4
2009-03-02 08:33:23 51°21.219 2°49.224 325.9 12.7 321 21.4
2009-03-02 08:33:28 51°21.233 2°49.206 326.1 12.8 320 21.4
2009-03-02 08:33:33 51°21.246 2°49.188 326.1 12.8 321 21.5
2009-03-02 08:33:38 51°21.26 2°49.17 326.3 12.8 321 21.3
2009-03-02 08:33:43 51°21.274 2°49.152 326.6 12.8 321 21.4
2009-03-02 08:33:48 51°21.288 2°49.135 326.7 12.7 323 21.1
2009-03-02 08:33:53 51°21.302 2°49.118 328 12.7 322 21.2
2009-03-02 08:33:58 51°21.316 2°49.101 328.2 12.7 324 21
2009-03-02 08:34:03 51°21.33 2°49.085 328.9 12.7 323 21
2009-03-02 08:34:08 51°21.344 2°49.068 329.2 12.7 323 21
2009-03-02 08:34:13 51°21.358 2°49.051 329.4 12.7 324 21
2009-03-02 08:34:18 51°21.372 2°49.034 329.6 12.8 323 20.8
2009-03-02 08:34:23 51°21.387 2°49.017 329.4 12.7 323 20.8
2009-03-02 08:34:28 51°21.401 2°49 329.4 12.8 323 20.7
2009-03-02 08:34:33 51°21.415 2°48.984 329.2 12.8 324 20.2
2009-03-02 08:34:38 51°21.429 2°48.967 328.9 12.8 324 20.1
2009-03-02 08:34:43 51°21.444 2°48.95 329.1 12.8 324 20.1
2009-03-02 08:34:48 51°21.458 2°48.934 329.2 12.8 323 20.4
2009-03-02 08:34:53 51°21.473 2°48.917 328.8 12.8 324 20.7
2009-03-02 08:34:58 51°21.487 2°48.9 329 12.8 324 21.1
2009-03-02 08:35:03 51°21.501 2°48.883 329 12.7 324 21.3
2009-03-02 08:35:08 51°21.515 2°48.866 328.9 12.8 324 21.6
2009-03-02 08:35:13 51°21.53 2°48.85 328.9 12.8 325 21.8
2009-03-02 08:35:18 51°21.545 2°48.834 329.7 12.8 325 21.9
2009-03-02 08:35:23 51°21.56 2°48.819 330.4 12.7 326 22.1
2009-03-02 08:35:28 51°21.574 2°48.803 330.9 12.7 326 22.1
2009-03-02 08:35:33 51°21.589 2°48.787 331 12.7 326 22.3
2009-03-02 08:35:38 51°21.603 2°48.771 331.1 12.7 327 22.3
2009-03-02 08:35:43 51°21.619 2°48.756 331.2 12.8 327 22.6
2009-03-02 08:35:48 51°21.633 2°48.741 331.5 12.8 327 22.7
2009-03-02 08:35:53 51°21.648 2°48.725 331.2 12.8 327 22.6
2009-03-02 08:35:58 51°21.663 2°48.71 331.1 12.8 328 22.7
2009-03-02 08:36:03 51°21.678 2°48.695 331.5 12.8 328 22.7
2009-03-02 08:36:08 51°21.693 2°48.68 332.4 12.8 327 22.7
2009-03-02 08:36:13 51°21.708 2°48.665 331.8 12.8 329 22.9
2009-03-02 08:36:18 51°21.723 2°48.65 332.3 12.8 328 22.9
2009-03-02 08:36:23 51°21.738 2°48.636 332.4 12.8 329 22.8
2009-03-02 08:36:28 51°21.754 2°48.621 332.6 12.8 329 23
2009-03-02 08:36:33 51°21.769 2°48.607 333.3 12.7 330 22.9
2009-03-02 08:36:38 51°21.784 2°48.592 333.5 12.8 329 23
2009-03-02 08:36:43 51°21.799 2°48.578 333.4 12.7 329 23.1
2009-03-02 08:36:48 51°21.814 2°48.564 333.2 12.7 329 23
2009-03-02 08:36:53 51°21.829 2°48.549 332.7 12.7 329 23.2
2009-03-02 08:36:58 51°21.845 2°48.535 332.4 12.7 330 23.2
2009-03-02 08:37:03 51°21.86 2°48.521 333 12.7 330 23.1
2009-03-02 08:37:08 51°21.875 2°48.506 333.8 12.7 329 23
2009-03-02 08:37:13 51°21.89 2°48.493 333.8 12.7 331 23.1
2009-03-02 08:37:18 51°21.906 2°48.479 334.6 12.6 331 23.1
2009-03-02 08:37:23 51°21.921 2°48.466 335.2 12.6 331 22.9
2009-03-02 08:37:28 51°21.937 2°48.453 335.4 12.6 333 22.9
2009-03-02 08:37:33 51°21.952 2°48.44 336.4 12.6 332 23.1
2009-03-02 08:37:38 51°21.968 2°48.428 337 12.5 335 23.2
2009-03-02 08:37:43 51°21.983 2°48.416 338.4 12.5 336 23
2009-03-02 08:37:48 51°21.999 2°48.405 340 12.5 337 23.2
2009-03-02 08:37:53 51°22.015 2°48.396 341.2 12.4 340 23.4
2009-03-02 08:37:58 51°22.032 2°48.386 343.9 12.4 340 23.4
2009-03-02 08:38:03 51°22.048 2°48.378 345.2 12.3 341 23
2009-03-02 08:38:08 51°22.064 2°48.371 347.1 12.2 344 23
2009-03-02 08:38:13 51°22.081 2°48.363 349.4 12.2 343 23.5
2009-03-02 08:38:18 51°22.097 2°48.359 350.5 12.1 352 23.5
2009-03-02 08:38:23 51°22.114 2°48.354 354 12.2 347 23.5
2009-03-02 08:38:28 51°22.13 2°48.349 355.1 12.1 351 23.4
2009-03-02 08:38:33 51°22.147 2°48.346 356.4 12.1 352 23.4
2009-03-02 08:38:38 51°22.164 2°48.342 357.7 12.1 353 23.2
2009-03-02 08:38:43 51°22.18 2°48.34 358.4 12 354 23.2
2009-03-02 08:38:48 51°22.196 2°48.336 359.9 12.1 353 23.2
2009-03-02 08:38:53 51°22.213 2°48.334 -999 12 355 23
2009-03-02 08:38:58 51°22.229 2°48.332 1 11.9 356 22.7
2009-03-02 08:39:03 51°22.246 2°48.33 1.6 12 357 22.2
2009-03-02 08:39:08 51°22.262 2°48.329 2.2 11.9 358 21.7
2009-03-02 08:39:13 51°22.279 2°48.328 3.3 11.9 359 21
2009-03-02 08:39:18 51°22.295 2°48.327 4.1 11.9 -999 21.1
2009-03-02 08:39:23 51°22.312 2°48.328 5 11.9 -999 20.5
2009-03-02 08:39:28 51°22.329 2°48.328 5.4 11.9 359 20.9
2009-03-02 08:39:33 51°22.345 2°48.329 5.8 11.9 2 19.9
2009-03-02 08:39:38 51°22.361 2°48.33 7.3 11.9 3 18.6
2009-03-02 08:39:43 51°22.378 2°48.332 8.4 11.8 5 16.8
2009-03-02 08:39:48 51°22.394 2°48.334 9.5 11.8 5 18.3
2009-03-02 08:39:53 51°22.41 2°48.337 9.8 11.8 6 18.1
2009-03-02 08:39:58 51°22.427 2°48.34 11.1 11.8 6 18
2009-03-02 08:40:03 51°22.443 2°48.343 11.7 11.8 8 17.3
2009-03-02 08:40:08 51°22.459 2°48.347 12.6 11.8 8 16.9
2009-03-02 08:40:13 51°22.475 2°48.351 13.4 11.8 8 16.7
2009-03-02 08:40:18 51°22.491 2°48.354 13.7 11.8 8 15
2009-03-02 08:40:23 51°22.508 2°48.358 13.6 11.7 8 14.1
2009-03-02 08:40:28 51°22.524 2°48.362 13.8 11.8 9 16.4
2009-03-02 08:40:33 51°22.54 2°48.366 14 11.8 9 15.9
2009-03-02 08:40:38 51°22.556 2°48.37 14 11.8 8 16
2009-03-02 08:40:43 51°22.572 2°48.374 13.9 11.8 9 15
2009-03-02 08:40:48 51°22.588 2°48.378 13.7 11.8 9 14.9
2009-03-02 08:40:53 51°22.605 2°48.382 14.1 11.8 10 17
2009-03-02 08:40:58 51°22.621 2°48.387 14.6 11.9 10 17.4
2009-03-02 08:41:03 51°22.637 2°48.391 15.2 11.9 10 15.6
2009-03-02 08:41:08 51°22.653 2°48.395 14.7 11.9 8 15.5
2009-03-02 08:41:13 51°22.67 2°48.398 13.3 11.9 9 17.2
2009-03-02 08:41:18 51°22.686 2°48.402 13 11.9 7 17.4
2009-03-02 08:41:23 51°22.702 2°48.405 12.7 11.9 7 16.9
2009-03-02 08:41:28 51°22.719 2°48.408 12.3 11.9 6 16.5
2009-03-02 08:41:33 51°22.735 2°48.411 11.6 11.9 5 15.6
2009-03-02 08:41:38 51°22.752 2°48.414 10.8 11.9 6 18
2009-03-02 08:41:43 51°22.769 2°48.417 10.7 12 6 18.2
2009-03-02 08:41:48 51°22.785 2°48.42 10.8 12 6 18.1
2009-03-02 08:41:53 51°22.802 2°48.422 10.7 11.9 5 17.5
2009-03-02 08:41:58 51°22.818 2°48.425 10.5 11.9 7 16.2
2009-03-02 08:42:03 51°22.835 2°48.427 11 11.8 5 18.2
2009-03-02 08:42:08 51°22.851 2°48.43 10.2 11.9 6 19.3
2009-03-02 08:42:13 51°22.867 2°48.43 9.9 11.9 2 19.4
2009-03-02 08:42:18 51°22.884 2°48.433 8.3 12 4 18.7
2009-03-02 08:42:23 51°22.901 2°48.433 8 11.9 1 17.4
2009-03-02 08:42:28 51°22.917 2°48.434 7.4 11.9 2 17
2009-03-02 08:42:33 51°22.934 2°48.434 6.6 12 -999 18.4
2009-03-02 08:42:38 51°22.95 2°48.434 6 12 1 18.5
2009-03-02 08:42:43 51°22.967 2°48.435 5.8 12 -999 18
2009-03-02 08:42:48 51°22.984 2°48.435 5.6 12 1 19.3
2009-03-02 08:42:53 51°23 2°48.435 5.5 12 359 19.1
2009-03-02 08:42:58 51°23.017 2°48.435 5 11.9 1 19.8
2009-03-02 08:43:03 51°23.034 2°48.435 5.5 11.9 359 19.1
2009-03-02 08:43:08 51°23.05 2°48.435 5.4 12 359 19.1
2009-03-02 08:43:13 51°23.067 2°48.435 4.8 11.9 1 19.7
2009-03-02 08:43:18 51°23.083 2°48.435 5.2 11.9 -999 20.1
2009-03-02 08:43:23 51°23.1 2°48.436 5.2 11.9 2 19.4
2009-03-02 08:43:28 51°23.116 2°48.435 5.9 12 359 18.7
2009-03-02 08:43:33 51°23.133 2°48.435 5.4 11.9 359 19.7
2009-03-02 08:43:38 51°23.149 2°48.434 4.7 11.9 359 20
2009-03-02 08:43:43 51°23.166 2°48.434 4.4 11.9 359 20
2009-03-02 08:43:48 51°23.182 2°48.433 4.4 11.9 358 18.2
2009-03-02 08:43:53 51°23.199 2°48.432 4.2 11.9 358 20.2
2009-03-02 08:43:58 51°23.215 2°48.431 3.8 12 359 20.9
2009-03-02 08:44:03 51°23.232 2°48.431 4.3 11.9 359 21
2009-03-02 08:44:08 51°23.248 2°48.431 4.4 11.9 -999 19.2
2009-03-02 08:44:13 51°23.265 2°48.43 5.1 11.9 359 20.2
2009-03-02 08:44:18 51°23.281 2°48.43 4.8 11.9 -999 20.5
2009-03-02 08:44:23 51°23.298 2°48.43 5.2 11.9 359 20.5
2009-03-02 08:44:28 51°23.315 2°48.429 5.2 12 358 19.4
2009-03-02 08:44:33 51°23.331 2°48.429 4.5 11.9 359 19.8
2009-03-02 08:44:38 51°23.347 2°48.427 3.7 11.9 357 18.5
2009-03-02 08:44:43 51°23.364 2°48.428 3.7 11.9 359 19.5
2009-03-02 08:44:48 51°23.38 2°48.426 4.5 11.9 358 19.1
2009-03-02 08:44:53 51°23.397 2°48.428 5.1 11.9 4 19.1
2009-03-02 08:44:58 51°23.413 2°48.428 6.7 11.9 1 20.2
2009-03-02 08:45:03 51°23.43 2°48.43 6.9 11.9 4 21.1
2009-03-02 08:45:08 51°23.446 2°48.432 8.1 11.8 4 21.7
2009-03-02 08:45:13 51°23.463 2°48.434 8.8 11.8 5 21.8
2009-03-02 08:45:18 51°23.479 2°48.436 9.3 11.8 4 21.6
2009-03-02 08:45:23 51°23.496 2°48.438 9.3 11.9 5 21.2
2009-03-02 08:45:28 51°23.512 2°48.44 9.4 11.9 5 21.1
2009-03-02 08:45:33 51°23.529 2°48.443 9.9 11.9 6 21.5
2009-03-02 08:45:38 51°23.545 2°48.445 10.6 11.9 5 21.4
2009-03-02 08:45:43 51°23.562 2°48.447 10.7 11.9 5 21.6
2009-03-02 08:45:48 51°23.578 2°48.45 10 11.8 6 21.4
2009-03-02 08:45:53 51°23.594 2°48.451 10.1 11.9 4 21.5
2009-03-02 08:45:58 51°23.611 2°48.453 9.5 11.9 4 21.7
2009-03-02 08:46:03 51°23.627 2°48.455 9.1 11.9 4 21.5
2009-03-02 08:46:08 51°23.644 2°48.456 9.2 11.9 3 21.2
2009-03-02 08:46:13 51°23.661 2°48.459 8.9 11.9 5 21.1
2009-03-02 08:46:18 51°23.677 2°48.46 9.4 11.9 4 20.2
2009-03-02 08:46:23 51°23.693 2°48.462 9.5 11.9 5 20.5
2009-03-02 08:46:28 51°23.71 2°48.464 10 11.9 3 21.6
2009-03-02 08:46:33 51°23.726 2°48.466 8.9 11.9 4 21.4
2009-03-02 08:46:38 51°23.743 2°48.467 9.1 12 2 21.1
2009-03-02 08:46:43 51°23.76 2°48.469 8.9 12 4 20
2009-03-02 08:46:48 51°23.776 2°48.469 9.2 12 2 19.5
2009-03-02 08:46:53 51°23.793 2°48.472 8.8 12 4 20.6
2009-03-02 08:46:58 51°23.809 2°48.473 9.3 11.9 3 20.9
2009-03-02 08:47:03 51°23.825 2°48.475 9.5 11.7 3 20.3
2009-03-02 08:47:08 51°23.841 2°48.476 9.3 11.5 3 18.6
2009-03-02 08:47:13 51°23.857 2°48.476 8.8 11.6 1 19.4
2009-03-02 08:47:18 51°23.873 2°48.477 7.9 11.6 3 20.3
2009-03-02 08:47:23 51°23.889 2°48.479 8.1 11.6 2 20.9
2009-03-02 08:47:28 51°23.906 2°48.48 8.5 11.7 4 20.9
2009-03-02 08:47:33 51°23.922 2°48.482 9.1 11.7 3 21.3
2009-03-02 08:47:38 51°23.938 2°48.484 9.2 11.7 4 21.3
2009-03-02 08:47:43 51°23.954 2°48.485 9 11.7 2 21.6
2009-03-02 08:47:48 51°23.971 2°48.486 8.7 11.7 3 21.3
2009-03-02 08:47:53 51°23.987 2°48.488 8.4 11.8 3 21.6
2009-03-02 08:47:58 51°24.003 2°48.489 8.8 11.8 3 20.3
2009-03-02 08:48:03 51°24.02 2°48.491 8.8 11.8 3 18.7
2009-03-02 08:48:08 51°24.036 2°48.491 9.2 11.8 2 19.5
2009-03-02 08:48:13 51°24.052 2°48.493 9.3 11.8 4 20.3
2009-03-02 08:48:18 51°24.069 2°48.494 9 11.8 2 20.5
2009-03-02 08:48:23 51°24.085 2°48.495 8.2 11.7 3 20.7
2009-03-02 08:48:28 51°24.101 2°48.495 8.1 11.8 -999 21.2
2009-03-02 08:48:33 51°24.117 2°48.496 6.5 11.8 1 21.2
2009-03-02 08:48:38 51°24.134 2°48.496 6.6 11.8 359 21.4
2009-03-02 08:48:43 51°24.15 2°48.495 5.9 11.8 -999 21.6
2009-03-02 08:48:48 51°24.167 2°48.495 5.5 11.8 359 21.6
2009-03-02 08:48:53 51°24.183 2°48.495 5.2 11.8 359 21.3
2009-03-02 08:48:58 51°24.2 2°48.494 4.8 11.9 359 21.4
2009-03-02 08:49:03 51°24.216 2°48.494 4.8 11.9 359 21.3
2009-03-02 08:49:08 51°24.233 2°48.493 4.5 11.9 359 21.4
2009-03-02 08:49:13 51°24.25 2°48.492 4.4 11.9 359 21
2009-03-02 08:49:18 51°24.266 2°48.491 4.4 11.9 359 21.3
2009-03-02 08:49:23 51°24.283 2°48.491 4.4 11.9 358 20.7
2009-03-02 08:49:28 51°24.299 2°48.49 4.2 11.9 358 20.6
2009-03-02 08:49:33 51°24.316 2°48.488 4 11.9 357 20
2009-03-02 08:49:38 51°24.332 2°48.487 3.1 11.9 357 19.4
2009-03-02 08:49:43 51°24.349 2°48.485 2.7 11.7 356 21
2009-03-02 08:49:48 51°24.364 2°48.483 2.3 11.5 356 22.2
2009-03-02 08:49:53 51°24.38 2°48.482 1.9 11.2 357 22
2009-03-02 08:49:58 51°24.395 2°48.48 2.3 10.9 357 22.3
2009-03-02 08:50:03 51°24.41 2°48.48 2.8 10.7 358 22.1
2009-03-02 08:50:08 51°24.424 2°48.479 3.2 10.6 358 21.9
2009-03-02 08:50:13 51°24.439 2°48.478 3.9 10.4 359 22.2
2009-03-02 08:50:18 51°24.453 2°48.478 4.6 10.3 359 22.1
2009-03-02 08:50:23 51°24.468 2°48.478 5.1 10.2 -999 21.9
2009-03-02 08:50:28 51°24.482 2°48.478 5.7 10.2 -999 21.6
2009-03-02 08:50:33 51°24.496 2°48.478 6.1 10.2 359 21.6
2009-03-02 08:50:38 51°24.51 2°48.478 5.9 10.1 -999 21.1
2009-03-02 08:50:43 51°24.524 2°48.478 5.8 10.2 -999 21.3
2009-03-02 08:50:48 51°24.538 2°48.478 6.1 10.1 1 20.6
2009-03-02 08:50:53 51°24.552 2°48.479 6.4 10 2 20.7
2009-03-02 08:50:58 51°24.565 2°48.479 6.9 9.9 1 21.1
2009-03-02 08:51:03 51°24.579 2°48.479 6.6 10 1 22
2009-03-02 08:51:08 51°24.593 2°48.48 6.6 10 2 23.1
2009-03-02 08:51:13 51°24.607 2°48.48 6.9 9.8 1 23.8
2009-03-02 08:51:18 51°24.62 2°48.481 7.1 9.5 2 23.8
2009-03-02 08:51:23 51°24.633 2°48.481 7.5 9.1 -999 24.1
2009-03-02 08:51:28 51°24.645 2°48.481 7.3 8.9 1 24.3
2009-03-02 08:51:33 51°24.657 2°48.481 6.7 8.7 -999 24.2
2009-03-02 08:51:38 51°24.669 2°48.482 6.8 8.3 -999 24.3
2009-03-02 08:51:43 51°24.68 2°48.481 6.6 7.9 -999 24.5
2009-03-02 08:51:48 51°24.69 2°48.481 6.3 7.7 -999 24.6
2009-03-02 08:51:53 51°24.701 2°48.481 6.5 7.4 359 24.5
2009-03-02 08:51:58 51°24.711 2°48.481 6.7 7.2 359 24.2
2009-03-02 08:52:03 51°24.72 2°48.481 6.3 7 358 24.6
2009-03-02 08:52:08 51°24.73 2°48.48 5.9 6.9 359 24.2
2009-03-02 08:52:13 51°24.739 2°48.48 6 6.8 358 24.6
2009-03-02 08:52:18 51°24.749 2°48.479 5.9 6.6 358 24.4
2009-03-02 08:52:23 51°24.757 2°48.478 6.2 6.5 357 24.2
2009-03-02 08:52:28 51°24.767 2°48.478 6.1 6.5 358 24.1
2009-03-02 08:52:33 51°24.775 2°48.477 5.9 6.4 356 24.3
2009-03-02 08:52:38 51°24.784 2°48.476 5.7 6.3 357 23.3
2009-03-02 08:52:43 51°24.793 2°48.475 5.6 6.3 357 23.6
2009-03-02 08:52:48 51°24.801 2°48.475 5.7 6.2 357 24
2009-03-02 08:52:53 51°24.81 2°48.474 5.6 6.1 358 23
2009-03-02 08:52:58 51°24.818 2°48.473 5.6 6.1 358 23.9
2009-03-02 08:53:03 51°24.827 2°48.473 5.9 6 359 23.2
2009-03-02 08:53:08 51°24.835 2°48.473 6.4 6 358 24.1
2009-03-02 08:53:13 51°24.843 2°48.472 6.6 6 359 24.3
2009-03-02 08:53:18 51°24.852 2°48.472 7.1 6 358 25.1
2009-03-02 08:53:23 51°24.86 2°48.471 6.8 6 357 25
2009-03-02 08:53:28 51°24.868 2°48.471 6.7 5.9 358 25.3
2009-03-02 08:53:33 51°24.876 2°48.47 6.6 5.8 358 25.1
2009-03-02 08:53:38 51°24.884 2°48.47 6.3 5.8 357 25.6
2009-03-02 08:53:43 51°24.892 2°48.469 6.1 5.6 359 25
2009-03-02 08:53:48 51°24.9 2°48.469 7.2 5.6 1 25
2009-03-02 08:53:53 51°24.908 2°48.47 8.3 5.6 1 25.2
2009-03-02 08:53:58 51°24.915 2°48.47 9.5 5.4 3 24.7
2009-03-02 08:54:03 51°24.922 2°48.471 10.9 5.2 3 24.7
2009-03-02 08:54:08 51°24.929 2°48.472 12.3 5 4 25.1
2009-03-02 08:54:13 51°24.936 2°48.473 13.2 4.8 6 25.3
2009-03-02 08:54:18 51°24.942 2°48.474 14.4 4.7 8 24.8
2009-03-02 08:54:23 51°24.948 2°48.476 16.1 4.5 10 24.2
2009-03-02 08:54:28 51°24.954 2°48.478 19.3 4.4 13 24.5
2009-03-02 08:54:33 51°24.96 2°48.48 21.2 4.2 14 24.5
2009-03-02 08:54:38 51°24.965 2°48.483 23.8 3.9 18 25.2
2009-03-02 08:54:43 51°24.97 2°48.486 26.5 3.7 19 26.2
2009-03-02 08:54:48 51°24.974 2°48.488 29.1 3.5 20 26.4
2009-03-02 08:54:53 51°24.979 2°48.491 31.1 3.2 22 26.6
2009-03-02 08:54:58 51°24.982 2°48.493 32.2 3 23 26.8
2009-03-02 08:55:03 51°24.986 2°48.496 33.6 2.9 24 26.5
2009-03-02 08:55:08 51°24.99 2°48.498 34.9 2.7 23 26.4
2009-03-02 08:55:13 51°24.992 2°48.501 36.4 2.4 27 26.6
2009-03-02 08:55:18 51°24.995 2°48.503 37.8 2 26 26.4
2009-03-02 08:55:23 51°24.997 2°48.505 39.8 1.6 29 26.6
2009-03-02 08:55:28 51°24.999 2°48.506 43.1 1.2 26 26.5
2009-03-02 08:55:33 51°25 2°48.507 45.9 1.1 27 26.5
2009-03-02 08:55:38 51°25.001 2°48.508 49.4 1 33 26.5
2009-03-02 08:55:43 51°25.002 2°48.509 53 0.9 33 26.3
2009-03-02 08:55:48 51°25.003 2°48.51 55.3 0.8 40 26.4
2009-03-02 08:55:53 51°25.004 2°48.512 57.2 0.8 40 26.5
2009-03-02 08:55:58 51°25.005 2°48.513 59.1 0.7 52 26.4
2009-03-02 08:56:03 51°25.005 2°48.514 61.1 0.6 51 26.5
2009-03-02 08:56:08 51°25.006 2°48.515 62.9 0.6 58 26.5
2009-03-02 08:56:13 51°25.006 2°48.516 64.2 0.6 63 26.4
2009-03-02 08:56:18 51°25.006 2°48.518 65.6 0.6 67 26.5
2009-03-02 08:56:23 51°25.007 2°48.519 67 0.6 63 26.4
2009-03-02 08:56:28 51°25.007 2°48.52 68.4 0.6 62 26.3
2009-03-02 08:56:33 51°25.007 2°48.521 69.2 0.5 67 26.3
2009-03-02 08:56:38 51°25.008 2°48.522 69.5 0.5 73 26.4
2009-03-02 08:56:43 51°25.008 2°48.523 69.8 0.5 79 26.4
2009-03-02 08:56:48 51°25.008 2°48.524 69.8 0.4 80 26.4
2009-03-02 08:56:53 51°25.008 2°48.526 69.9 0.5 81 26.3
2009-03-02 08:56:58 51°25.008 2°48.527 70.4 0.5 70 26.3
2009-03-02 08:57:03 51°25.008 2°48.527 69.8 0.4 74 26.4
2009-03-02 08:57:08 51°25.009 2°48.528 69.1 0.4 59 26.3
2009-03-02 08:57:13 51°25.009 2°48.529 68.1 0.4 72 26.4
2009-03-02 08:57:18 51°25.009 2°48.53 67 0.3 70 26.5
2009-03-02 08:57:23 51°25.009 2°48.53 66 0.3 79 26.5
2009-03-02 08:57:28 51°25.009 2°48.531 65.2 0.3 79 26.1
2009-03-02 08:57:33 51°25.009 2°48.532 64.8 0.3 82 26.1
2009-03-02 08:57:38 51°25.009 2°48.532 64.7 0.2 74 26
2009-03-02 08:57:43 51°25.01 2°48.533 64.5 0.2 65 26.1
2009-03-02 08:57:48 51°25.01 2°48.533 64 0.2 64 26.1
2009-03-02 08:57:53 51°25.01 2°48.534 63.6 0.3 64 26
2009-03-02 08:57:58 51°25.01 2°48.534 63.2 0.2 90 26
2009-03-02 08:58:03 51°25.01 2°48.534 62.4 0.2 71 26.2
2009-03-02 08:58:08 51°25.01 2°48.535 62.1 0.2 81 26
2009-03-02 08:58:13 51°25.01 2°48.536 61.6 0.2 67 26
2009-03-02 08:58:18 51°25.01 2°48.536 60.7 0.1 98 26.1
2009-03-02 08:58:23 51°25.01 2°48.536 59.3 0.1 53 26.2
2009-03-02 08:58:28 51°25.01 2°48.536 57.4 0.1 26 26.2
2009-03-02 08:58:33 51°25.01 2°48.536 56.4 0.1 338 26.2
2009-03-02 08:58:38 51°25.01 2°48.536 55.4 0.1 299 26.2
2009-03-02 08:58:43 51°25.01 2°48.536 54.5 -999 313 26.3
2009-03-02 08:58:48 51°25.01 2°48.535 53.3 0.1 303 26.2
2009-03-02 08:58:53 51°25.01 2°48.535 52.8 0.1 290 26.2
2009-03-02 08:58:58 51°25.011 2°48.535 52.3 0.1 302 26.3
2009-03-02 08:59:03 51°25.011 2°48.535 51.6 0.1 222 26.2
2009-03-02 08:59:08 51°25.011 2°48.535 51.1 0.2 251 26.2
2009-03-02 08:59:13 51°25.01 2°48.534 50.2 0.1 205 26.2
2009-03-02 08:59:18 51°25.01 2°48.534 49.2 0.1 258 26
2009-03-02 08:59:23 51°25.01 2°48.534 49.3 0.2 246 25.9
2009-03-02 08:59:28 51°25.01 2°48.533 48.9 0.3 248 26
2009-03-02 08:59:33 51°25.01 2°48.533 48 0.3 244 26
2009-03-02 08:59:38 51°25.01 2°48.532 47 0.3 253 26.1
2009-03-02 08:59:43 51°25.01 2°48.531 45.8 0.3 251 26.1
2009-03-02 08:59:48 51°25.009 2°48.531 45.1 0.3 232 26.1
2009-03-02 08:59:53 51°25.009 2°48.53 44.4 0.4 242 26.2
2009-03-02 08:59:58 51°25.009 2°48.529 43.6 0.3 248 26.2
2009-03-02 09:00:03 51°25.009 2°48.529 43 0.3 261 26.2
2009-03-02 09:00:08 51°25.009 2°48.528 42.5 0.3 251 26.3
2009-03-02 09:00:13 51°25.008 2°48.527 41.5 0.4 250 26.3
2009-03-02 09:00:18 51°25.008 2°48.526 40.7 0.4 247 26.4
2009-03-02 09:00:23 51°25.008 2°48.526 39.6 0.4 241 26.4
2009-03-02 09:00:28 51°25.008 2°48.525 38.9 0.4 243 26.5
2009-03-02 09:00:33 51°25.008 2°48.524 38 0.4 247 26.4
2009-03-02 09:00:38 51°25.007 2°48.523 37.2 0.4 248 26.3
2009-03-02 09:00:43 51°25.007 2°48.522 36.7 0.4 249 26.3
2009-03-02 09:00:48 51°25.007 2°48.521 35.9 0.5 253 26.3
2009-03-02 09:00:53 51°25.007 2°48.52 35.2 0.5 246 26.3
2009-03-02 09:00:58 51°25.006 2°48.52 34.6 0.4 226 26.3
2009-03-02 09:01:03 51°25.006 2°48.519 34 0.5 221 26.4
2009-03-02 09:01:08 51°25.005 2°48.518 33.4 0.5 225 26.5
2009-03-02 09:01:13 51°25.005 2°48.518 32.5 0.4 227 26.4
2009-03-02 09:01:18 51°25.005 2°48.517 32.4 0.5 232 26.3
2009-03-02 09:01:23 51°25.004 2°48.516 32.2 0.5 236 26.3
2009-03-02 09:01:28 51°25.004 2°48.515 32 0.5 240 26.3
2009-03-02 09:01:33 51°25.003 2°48.514 31.7 0.5 236 26.3
2009-03-02 09:01:38 51°25.003 2°48.513 31.3 0.6 235 26.4
2009-03-02 09:01:43 51°25.002 2°48.512 30.9 0.5 233 26.5
2009-03-02 09:01:48 51°25.002 2°48.511 30.5 0.5 231 26.5